Time;durP1;ratioP1;P1;durP2;ratioP2;P2;SDS_P1;SDS_P2;PMS_P1;PMS_P2;Temp;Humidity;BMP_temperature;BMP_pressure;BME280_temperature;BME280_humidity;BME280_pressure;Samples;Min_cycle;Max_cycle;Signal;HPM_P1;HPM_P2
2022/04/19 00:00:45;;;;;;;1.57;0.87;;;8.90;99.90;;;;;;5012575;28;20792;-72
2022/04/19 00:03:12;;;;;;;0.70;0.50;;;8.90;99.90;;;;;;5012318;28;20290;-72
2022/04/19 00:05:38;;;;;;;0.80;0.60;;;8.90;99.90;;;;;;5012133;28;20183;-72
2022/04/19 00:08:05;;;;;;;0.70;0.50;;;8.80;99.90;;;;;;5011556;28;20450;-72
2022/04/19 00:10:31;;;;;;;1.07;0.60;;;8.80;99.90;;;;;;5012152;28;20466;-72
2022/04/19 00:12:59;;;;;;;0.80;0.70;;;8.80;99.90;;;;;;5012360;28;20446;-72
2022/04/19 00:15:28;;;;;;;0.70;0.50;;;8.70;99.90;;;;;;5012040;28;20820;-72
2022/04/19 00:17:58;;;;;;;0.70;0.50;;;8.70;99.90;;;;;;5012121;28;20435;-72
2022/04/19 00:20:24;;;;;;;0.70;0.50;;;8.60;99.90;;;;;;5011888;28;20505;-72
2022/04/19 00:22:51;;;;;;;0.70;0.50;;;8.60;99.90;;;;;;5012051;28;20493;-72
2022/04/19 00:25:17;;;;;;;0.80;0.53;;;8.60;99.90;;;;;;5011743;28;20399;-72
2022/04/19 00:27:42;;;;;;;0.70;0.57;;;8.60;99.90;;;;;;5012188;28;20477;-72
2022/04/19 00:30:08;;;;;;;0.80;0.60;;;8.50;99.90;;;;;;5012213;28;20494;-73
2022/04/19 00:32:35;;;;;;;0.70;0.50;;;8.50;99.90;;;;;;5012147;28;20176;-71
2022/04/19 00:35:02;;;;;;;0.70;0.50;;;8.50;99.90;;;;;;5012051;28;20414;-72
2022/04/19 00:37:27;;;;;;;0.70;0.50;;;8.40;99.90;;;;;;5011678;28;20439;-73
2022/04/19 00:39:57;;;;;;;0.70;0.50;;;8.40;99.90;;;;;;5012083;28;20430;-72
2022/04/19 00:42:23;;;;;;;0.70;0.50;;;8.40;99.90;;;;;;5012068;28;20184;-73
2022/04/19 00:44:48;;;;;;;0.70;0.50;;;8.30;99.90;;;;;;5011990;28;20469;-72
2022/04/19 00:47:15;;;;;;;0.80;0.70;;;8.30;99.90;;;;;;5011755;28;20427;-73
2022/04/19 00:49:42;;;;;;;0.70;0.50;;;8.30;99.90;;;;;;5011939;28;20168;-73
2022/04/19 00:52:09;;;;;;;1.10;0.80;;;8.20;99.90;;;;;;5012046;28;20402;-73
2022/04/19 00:54:34;;;;;;;0.80;0.50;;;8.20;99.90;;;;;;5011728;28;20867;-72
2022/04/19 00:57:01;;;;;;;0.70;0.57;;;8.20;99.90;;;;;;5011620;28;20435;-71
2022/04/19 00:59:26;;;;;;;0.90;0.60;;;8.10;99.90;;;;;;5010592;28;20172;-72
2022/04/19 01:01:52;;;;;;;0.80;0.50;;;8.10;99.90;;;;;;5011786;28;20888;-72
2022/04/19 01:04:18;;;;;;;0.80;0.70;;;8.10;99.90;;;;;;5011778;28;20161;-72
2022/04/19 01:06:44;;;;;;;0.80;0.60;;;8.00;99.90;;;;;;5011751;28;20689;-72
2022/04/19 01:09:10;;;;;;;1.53;1.43;;;8.00;99.90;;;;;;5011885;28;20403;-72
2022/04/19 01:14:21;;;;;;;0.70;0.50;;;7.90;99.90;;;;;;5011920;28;20457;-73
2022/04/19 01:16:46;;;;;;;0.70;0.50;;;7.80;99.90;;;;;;5011461;28;20423;-71
2022/04/19 01:19:16;;;;;;;0.90;0.73;;;7.80;99.90;;;;;;5014027;28;20411;-73
2022/04/19 01:21:46;;;;;;;0.70;0.50;;;7.70;99.90;;;;;;5014089;28;20173;-72
2022/04/19 01:24:17;;;;;;;0.70;0.50;;;7.70;99.90;;;;;;5015454;28;20450;-73
2022/04/19 01:26:43;;;;;;;0.80;0.57;;;7.60;99.90;;;;;;5013695;28;20435;-72
2022/04/19 01:29:12;;;;;;;0.80;0.50;;;7.60;99.90;;;;;;5015322;28;20486;-72
2022/04/19 01:31:40;;;;;;;0.80;0.50;;;7.50;99.90;;;;;;5015071;28;20461;-72
2022/04/19 01:34:06;;;;;;;0.80;0.57;;;7.50;99.90;;;;;;5015170;28;20768;-72
2022/04/19 01:36:36;;;;;;;0.80;0.50;;;7.40;99.90;;;;;;5014706;28;20418;-72
2022/04/19 01:39:07;;;;;;;0.70;0.50;;;7.40;99.90;;;;;;5015118;28;20453;-73
2022/04/19 01:41:34;;;;;;;0.80;0.60;;;7.40;99.90;;;;;;5014919;28;20431;-72
2022/04/19 01:44:00;;;;;;;0.80;0.50;;;7.30;99.90;;;;;;5014803;28;20967;-72
2022/04/19 01:46:28;;;;;;;0.70;0.50;;;7.30;99.90;;;;;;5014452;28;20423;-72
2022/04/19 01:48:55;;;;;;;0.80;0.50;;;7.20;99.90;;;;;;5014909;28;20529;-72
2022/04/19 01:51:21;;;;;;;0.70;0.50;;;7.20;99.90;;;;;;5014768;28;20486;-72
2022/04/19 01:53:48;;;;;;;0.70;0.50;;;7.10;99.90;;;;;;5029923;28;20944;-72
2022/04/19 01:56:14;;;;;;;0.70;0.50;;;7.10;99.90;;;;;;5014234;28;20451;-72
2022/04/19 01:58:40;;;;;;;0.73;0.50;;;7.10;99.90;;;;;;5029921;28;20411;-72
2022/04/19 02:01:05;;;;;;;0.70;0.50;;;7.00;99.90;;;;;;5014666;28;20163;-72
2022/04/19 02:03:31;;;;;;;0.70;0.50;;;7.00;99.90;;;;;;5014464;28;20203;-72
2022/04/19 02:05:57;;;;;;;0.77;0.63;;;7.00;99.90;;;;;;5014187;28;20215;-73
2022/04/19 02:08:22;;;;;;;0.70;0.50;;;6.90;99.90;;;;;;5014468;28;20160;-73
2022/04/19 02:10:48;;;;;;;0.70;0.50;;;6.90;99.90;;;;;;5014462;28;20646;-72
2022/04/19 02:13:13;;;;;;;0.70;0.50;;;6.90;99.90;;;;;;5014288;28;20203;-72
2022/04/19 02:15:39;;;;;;;0.80;0.70;;;6.80;99.90;;;;;;5014155;28;20226;-72
2022/04/19 02:18:05;;;;;;;0.70;0.50;;;6.80;99.90;;;;;;5014207;28;20696;-72
2022/04/19 02:20:31;;;;;;;0.90;0.60;;;6.80;99.90;;;;;;5014076;28;20638;-72
2022/04/19 02:22:56;;;;;;;0.70;0.50;;;6.80;99.90;;;;;;5014202;28;20261;-72
2022/04/19 02:25:26;;;;;;;0.70;0.50;;;6.70;99.90;;;;;;5013843;28;20164;-72
2022/04/19 02:27:52;;;;;;;0.90;0.90;;;6.70;99.90;;;;;;5013953;28;20183;-72
2022/04/19 02:30:18;;;;;;;0.80;0.70;;;6.70;99.90;;;;;;5013490;28;20399;-72
2022/04/19 02:32:46;;;;;;;0.70;0.50;;;6.60;99.90;;;;;;5014013;28;20767;-72
2022/04/19 02:35:15;;;;;;;0.70;0.50;;;6.60;99.90;;;;;;5012760;28;20776;-72
2022/04/19 02:37:47;;;;;;;0.70;0.50;;;6.60;99.90;;;;;;5013502;28;20431;-72
2022/04/19 02:40:13;;;;;;;0.73;0.60;;;6.50;99.90;;;;;;5013923;28;20407;-72
2022/04/19 02:42:39;;;;;;;0.80;0.70;;;6.50;99.90;;;;;;5013741;28;20450;-72
2022/04/19 02:45:05;;;;;;;0.70;0.50;;;6.50;99.90;;;;;;5013793;28;20164;-72
2022/04/19 02:47:31;;;;;;;0.70;0.50;;;6.40;99.90;;;;;;5013473;28;20488;-71
2022/04/19 02:49:57;;;;;;;0.80;0.80;;;6.40;99.90;;;;;;5013729;28;20961;-72
2022/04/19 02:52:22;;;;;;;0.70;0.50;;;6.40;99.90;;;;;;5013629;28;20462;-72
2022/04/19 02:54:48;;;;;;;0.90;0.70;;;6.40;99.90;;;;;;5013418;28;20275;-71
2022/04/19 02:57:13;;;;;;;0.70;0.50;;;6.30;99.90;;;;;;5013221;28;20685;-72
2022/04/19 02:59:42;;;;;;;0.70;0.50;;;6.30;99.90;;;;;;5013628;28;20307;-72
2022/04/19 03:02:08;;;;;;;0.70;0.50;;;6.30;99.90;;;;;;5013497;28;20168;-72
2022/04/19 03:04:33;;;;;;;0.70;0.50;;;6.20;99.90;;;;;;5013471;28;20434;-72
2022/04/19 03:06:59;;;;;;;0.70;0.50;;;6.20;99.90;;;;;;5013156;28;20253;-72
2022/04/19 03:09:25;;;;;;;0.80;0.73;;;6.20;99.90;;;;;;5013357;28;20630;-72
2022/04/19 03:11:50;;;;;;;0.70;0.50;;;6.10;99.90;;;;;;5013370;28;20173;-72
2022/04/19 03:14:17;;;;;;;0.70;0.50;;;6.10;99.90;;;;;;5013149;28;20172;-72
2022/04/19 03:16:42;;;;;;;0.70;0.60;;;6.00;99.90;;;;;;5012945;28;20192;-72
2022/04/19 03:19:08;;;;;;;0.70;0.50;;;6.00;99.90;;;;;;5013243;28;20418;-72
2022/04/19 03:21:33;;;;;;;0.70;0.50;;;5.90;99.90;;;;;;5013128;28;20173;-72
2022/04/19 03:29:27;;;;;;;0.70;0.50;;;5.90;99.90;;;;;;5013118;28;20403;-72
2022/04/19 03:31:54;;;;;;;0.70;0.50;;;5.90;99.90;;;;;;5028227;28;20962;-72
2022/04/19 03:34:20;;;;;;;0.70;0.53;;;5.90;99.90;;;;;;5013011;28;20614;-73
2022/04/19 03:36:45;;;;;;;0.70;0.50;;;5.90;99.90;;;;;;5012560;28;20517;-72
2022/04/19 03:39:11;;;;;;;0.70;0.50;;;5.90;99.90;;;;;;5012863;28;20176;-72
2022/04/19 03:41:36;;;;;;;0.70;0.50;;;5.90;99.90;;;;;;5012787;28;20560;-72
2022/04/19 03:44:02;;;;;;;0.70;0.50;;;5.90;99.90;;;;;;5012794;28;20172;-72
2022/04/19 03:46:28;;;;;;;0.70;0.50;;;5.90;99.90;;;;;;5012363;28;20196;-72
2022/04/19 03:48:53;;;;;;;0.70;0.50;;;5.90;99.90;;;;;;5012774;28;20176;-72
2022/04/19 03:51:19;;;;;;;0.70;0.50;;;5.80;99.90;;;;;;5012635;28;20168;-72
2022/04/19 03:53:46;;;;;;;0.70;0.50;;;5.90;99.90;;;;;;5012532;28;20200;-72
2022/04/19 03:56:12;;;;;;;1.57;1.47;;;5.90;99.90;;;;;;5012239;28;20200;-72
2022/04/19 03:58:37;;;;;;;0.70;0.50;;;5.80;99.90;;;;;;5012531;28;20410;-71
2022/04/19 04:01:03;;;;;;;0.70;0.50;;;5.80;99.90;;;;;;5012479;28;20537;-71
2022/04/19 04:03:28;;;;;;;0.70;0.50;;;5.80;99.90;;;;;;5012478;28;20207;-71
2022/04/19 04:05:57;;;;;;;1.43;1.33;;;5.80;99.90;;;;;;5012029;28;20172;-71
2022/04/19 04:08:23;;;;;;;0.80;0.60;;;5.70;99.90;;;;;;5012423;28;20195;-72
2022/04/19 04:10:50;;;;;;;0.70;0.60;;;5.70;99.90;;;;;;5012298;28;20419;-72
2022/04/19 04:13:15;;;;;;;0.80;0.57;;;5.70;99.90;;;;;;5012323;28;20242;-72
2022/04/19 04:15:41;;;;;;;0.70;0.50;;;5.70;99.90;;;;;;5012067;28;20885;-72
2022/04/19 04:18:06;;;;;;;0.70;0.50;;;5.70;99.90;;;;;;5012088;28;20188;-72
2022/04/19 04:20:32;;;;;;;0.70;0.50;;;5.60;99.90;;;;;;5012297;28;20164;-72
2022/04/19 04:22:58;;;;;;;0.70;0.50;;;5.60;99.90;;;;;;5012217;28;20656;-72
2022/04/19 04:25:23;;;;;;;0.70;0.50;;;5.60;99.90;;;;;;5012250;28;20172;-71
2022/04/19 04:27:49;;;;;;;0.70;0.50;;;5.60;99.90;;;;;;5011962;28;20184;-72
2022/04/19 04:30:14;;;;;;;1.33;1.20;;;5.60;99.90;;;;;;5012218;28;20168;-72
2022/04/19 04:32:40;;;;;;;0.70;0.60;;;5.60;99.90;;;;;;5012010;28;20246;-71
2022/04/19 04:35:07;;;;;;;0.70;0.53;;;5.50;99.90;;;;;;5012167;28;20222;-71
2022/04/19 04:37:32;;;;;;;0.70;0.50;;;5.50;99.90;;;;;;5011779;28;20183;-74
2022/04/19 04:39:58;;;;;;;0.80;0.63;;;5.50;99.90;;;;;;5012106;28;20403;-71
2022/04/19 04:42:23;;;;;;;0.70;0.50;;;5.60;99.90;;;;;;5012056;28;20527;-71
2022/04/19 04:44:49;;;;;;;0.70;0.50;;;5.60;99.90;;;;;;5012068;28;20172;-72
2022/04/19 04:49:59;;;;;;;0.70;0.50;;;5.60;99.90;;;;;;5012160;28;20214;-72
2022/04/19 04:52:25;;;;;;;1.20;1.10;;;5.60;99.90;;;;;;5012183;28;20482;-71
2022/04/19 04:54:50;;;;;;;0.70;0.50;;;5.60;99.90;;;;;;5015398;28;20191;-72
2022/04/19 04:57:18;;;;;;;0.70;0.50;;;5.60;99.90;;;;;;5015540;28;20192;-72
2022/04/19 04:59:45;;;;;;;0.80;0.50;;;5.60;99.90;;;;;;5015865;28;20242;-72
2022/04/19 05:02:11;;;;;;;0.70;0.50;;;5.70;99.90;;;;;;5015641;28;20402;-72
2022/04/19 05:04:36;;;;;;;0.70;0.50;;;5.70;99.90;;;;;;5015730;28;20896;-72
2022/04/19 05:07:02;;;;;;;0.70;0.50;;;5.70;99.90;;;;;;5015333;28;20725;-72
2022/04/19 05:09:28;;;;;;;0.70;0.50;;;5.80;99.90;;;;;;5015625;28;20174;-74
2022/04/19 05:11:53;;;;;;;1.30;1.17;;;6.00;99.90;;;;;;5015646;28;20196;-74
2022/04/19 05:14:19;;;;;;;1.50;1.40;;;6.10;99.90;;;;;;5015188;28;20235;-74
2022/04/19 05:16:45;;;;;;;0.70;0.50;;;6.40;99.90;;;;;;5015292;28;20597;-75
2022/04/19 05:19:11;;;;;;;0.70;0.50;;;6.60;99.90;;;;;;5015540;28;20431;-74
2022/04/19 05:21:40;;;;;;;0.80;0.60;;;6.70;99.90;;;;;;5015463;28;20654;-74
2022/04/19 05:24:07;;;;;;;0.70;0.50;;;7.00;99.90;;;;;;5014009;28;20541;-74
2022/04/19 05:26:33;;;;;;;0.70;0.60;;;7.10;99.90;;;;;;5015101;28;20431;-74
2022/04/19 05:28:58;;;;;;;1.63;0.80;;;7.20;99.90;;;;;;5015118;28;20407;-74
2022/04/19 05:31:24;;;;;;;41.40;1.90;;;7.40;99.90;;;;;;5030551;28;20172;-73
2022/04/19 05:33:50;;;;;;;1.13;0.80;;;7.70;99.90;;;;;;5015059;28;20192;-72
2022/04/19 05:36:16;;;;;;;0.70;0.60;;;8.00;99.90;;;;;;5014803;28;20662;-72
2022/04/19 05:38:41;;;;;;;0.70;0.50;;;8.80;99.90;;;;;;5015128;28;20411;-72
2022/04/19 05:41:07;;;;;;;0.70;0.50;;;9.70;99.90;;;;;;5015102;28;20833;-72
2022/04/19 05:43:32;;;;;;;0.77;0.57;;;10.60;99.90;;;;;;5015031;28;20168;-72
2022/04/19 05:45:58;;;;;;;0.80;0.70;;;11.50;99.90;;;;;;5014665;28;20543;-72
2022/04/19 05:48:25;;;;;;;0.70;0.60;;;12.20;99.90;;;;;;5014967;28;20169;-73
2022/04/19 05:50:51;;;;;;;0.90;0.70;;;13.00;99.90;;;;;;5014829;28;20172;-72
2022/04/19 05:53:16;;;;;;;0.87;0.67;;;13.60;99.90;;;;;;5014777;28;20447;-72
2022/04/19 05:55:42;;;;;;;0.90;0.70;;;14.30;99.90;;;;;;5014415;28;20423;-72
2022/04/19 05:58:07;;;;;;;2.80;1.50;;;15.00;99.90;;;;;;5014512;28;20211;-73
2022/04/19 06:00:33;;;;;;;2.70;1.00;;;15.60;99.90;;;;;;5013434;28;20242;-72
2022/04/19 06:05:42;;;;;;;1.40;0.90;;;16.80;97.40;;;;;;5013532;28;20171;-72
2022/04/19 06:08:08;;;;;;;0.90;0.70;;;17.50;94.20;;;;;;5014486;28;20423;-72
2022/04/19 06:10:34;;;;;;;0.90;0.80;;;18.00;86.20;;;;;;5014554;28;20183;-73
2022/04/19 06:12:59;;;;;;;4.60;1.43;;;18.40;81.60;;;;;;5014341;28;20207;-73
2022/04/19 06:15:25;;;;;;;0.90;0.80;;;19.00;75.80;;;;;;5014449;28;20172;-73
2022/04/19 06:17:50;;;;;;;0.90;0.70;;;19.60;73.90;;;;;;5014056;28;20592;-73
2022/04/19 06:20:16;;;;;;;1.30;1.20;;;20.10;67.50;;;;;;5029527;28;20688;-73
2022/04/19 06:22:41;;;;;;;5.07;2.30;;;20.50;63.50;;;;;;5014320;28;20168;-73
2022/04/19 06:25:07;;;;;;;6.83;1.90;;;20.90;59.60;;;;;;5014213;28;20588;-73
2022/04/19 06:27:33;;;;;;;1.20;1.10;;;21.40;58.10;;;;;;5029042;28;20191;-73
2022/04/19 06:29:59;;;;;;;3.67;3.23;;;22.00;57.30;;;;;;5014432;28;20411;-73
2022/04/19 06:32:25;;;;;;;2.03;1.03;;;22.60;55.30;;;;;;5014050;28;20184;-73
2022/04/19 06:34:52;;;;;;;1.53;1.33;;;23.10;54.50;;;;;;5014030;28;20192;-73
2022/04/19 06:37:19;;;;;;;1.10;1.00;;;23.50;52.30;;;;;;5012369;28;20948;-73
2022/04/19 06:39:45;;;;;;;1.63;1.17;;;23.80;51.40;;;;;;5013881;28;20404;-73
2022/04/19 06:42:11;;;;;;;2.13;1.00;;;24.20;49.70;;;;;;5013746;28;20407;-74
2022/04/19 06:44:36;;;;;;;1.87;1.30;;;24.60;49.30;;;;;;5013925;28;20171;-73
2022/04/19 06:47:02;;;;;;;6.10;1.53;;;25.10;49.10;;;;;;5013429;28;20561;-73
2022/04/19 06:49:28;;;;;;;1.50;1.40;;;25.50;47.70;;;;;;5013800;28;20644;-73
2022/04/19 06:51:54;;;;;;;1.83;1.73;;;25.90;46.60;;;;;;5013634;28;20372;-73
2022/04/19 06:54:20;;;;;;;1.40;1.30;;;26.30;45.70;;;;;;5013521;28;20196;-73
2022/04/19 06:56:45;;;;;;;2.73;1.90;;;26.60;44.50;;;;;;5013272;28;20434;-74
2022/04/19 06:59:11;;;;;;;1.90;1.80;;;27.00;43.60;;;;;;5013612;28;20165;-74
2022/04/19 07:01:39;;;;;;;1.17;1.07;;;27.30;42.60;;;;;;5013647;28;20168;-74
2022/04/19 07:04:05;;;;;;;1.03;0.93;;;27.40;41.70;;;;;;5013437;28;20411;-74
2022/04/19 07:06:31;;;;;;;1.23;1.13;;;27.60;41.50;;;;;;5013254;28;20470;-74
2022/04/19 07:08:56;;;;;;;1.47;1.10;;;28.00;40.80;;;;;;5013395;28;20179;-74
2022/04/19 07:11:22;;;;;;;2.43;1.90;;;28.60;40.70;;;;;;5013384;28;20230;-74
2022/04/19 07:13:48;;;;;;;1.67;1.43;;;29.00;39.70;;;;;;5021097;28;20237;-74
2022/04/19 07:16:15;;;;;;;1.80;1.70;;;29.60;39.70;;;;;;5030455;28;20220;-74
2022/04/19 07:18:40;;;;;;;1.30;1.17;;;29.70;37.80;;;;;;5011916;28;20415;-74
2022/04/19 07:26:49;;;;;;;1.33;1.23;;;31.20;36.60;;;;;;5030189;28;20729;-74
2022/04/19 07:29:18;;;;;;;1.50;1.40;;;31.90;36.00;;;;;;5031597;28;20418;-74
2022/04/19 07:31:46;;;;;;;1.50;1.40;;;32.50;35.10;;;;;;5032923;28;20598;-74
2022/04/19 07:34:12;;;;;;;1.53;1.40;;;33.00;34.30;;;;;;5031276;28;20548;-74
2022/04/19 07:36:40;;;;;;;2.10;1.70;;;33.30;33.50;;;;;;5032353;28;20430;-74
2022/04/19 07:39:10;;;;;;;1.40;1.30;;;33.70;32.40;;;;;;5032783;28;20421;-74
2022/04/19 07:41:37;;;;;;;1.53;1.43;;;34.10;32.20;;;;;;5032829;28;20537;-75
2022/04/19 07:44:04;;;;;;;1.40;1.30;;;34.50;31.60;;;;;;5031022;28;20462;-74
2022/04/19 07:46:33;;;;;;;2.53;1.50;;;34.70;31.00;;;;;;5032339;28;20429;-74
2022/04/19 07:48:59;;;;;;;1.50;1.17;;;34.80;30.30;;;;;;5032442;28;20407;-74
2022/04/19 07:51:25;;;;;;;1.50;1.40;;;35.40;30.80;;;;;;5032441;28;20529;-74
2022/04/19 07:53:51;;;;;;;1.73;1.63;;;36.00;30.20;;;;;;5032475;28;20175;-74
2022/04/19 07:56:17;;;;;;;1.33;1.13;;;36.60;30.60;;;;;;5032074;28;20460;-74
2022/04/19 07:58:45;;;;;;;2.97;1.73;;;37.10;29.50;;;;;;5032397;28;20895;-75
2022/04/19 08:01:11;;;;;;;2.70;1.70;;;37.40;29.50;;;;;;5032288;28;20410;-75
2022/04/19 08:03:37;;;;;;;1.63;1.30;;;37.60;28.60;;;;;;5032165;28;20456;-75
2022/04/19 08:06:02;;;;;;;1.60;1.40;;;38.00;29.40;;;;;;5030686;28;20178;-74
2022/04/19 08:08:28;;;;;;;1.53;1.43;;;38.30;28.70;;;;;;5032349;28;20415;-75
2022/04/19 08:10:53;;;;;;;2.07;1.73;;;38.60;28.50;;;;;;5028683;28;20582;-74
2022/04/19 08:13:19;;;;;;;2.83;2.63;;;38.70;28.40;;;;;;5017567;28;20669;-75
2022/04/19 08:15:46;;;;;;;3.00;2.20;;;39.00;28.50;;;;;;5012460;28;20254;-75
2022/04/19 08:18:14;;;;;;;1.57;1.47;;;39.30;28.40;;;;;;5012057;28;20199;-75
2022/04/19 08:20:40;;;;;;;3.20;3.00;;;39.70;28.20;;;;;;5012365;28;20896;-75
2022/04/19 08:23:07;;;;;;;2.80;2.60;;;40.20;28.10;;;;;;5012298;28;20454;-75
2022/04/19 08:25:34;;;;;;;1.73;1.60;;;40.40;27.00;;;;;;5012199;28;20403;-75
2022/04/19 08:27:59;;;;;;;1.60;1.50;;;40.80;26.90;;;;;;5011399;28;20431;-76
2022/04/19 08:30:25;;;;;;;2.60;1.83;;;41.50;27.10;;;;;;5019915;28;20414;-75
2022/04/19 08:32:50;;;;;;;2.07;1.90;;;42.10;26.10;;;;;;5029894;28;20172;-75
2022/04/19 08:35:19;;;;;;;2.30;2.10;;;42.30;25.90;;;;;;5012121;28;20176;-75
2022/04/19 08:37:46;;;;;;;1.93;1.67;;;42.80;25.80;;;;;;5010814;28;20659;-75
2022/04/19 08:40:13;;;;;;;3.47;1.70;;;43.10;25.70;;;;;;5012180;28;20435;-75
2022/04/19 08:42:40;;;;;;;1.97;1.87;;;43.30;25.30;;;;;;5011910;28;20461;-75
2022/04/19 08:45:07;;;;;;;2.00;1.90;;;43.50;25.20;;;;;;5011941;28;20789;-75
2022/04/19 08:47:37;;;;;;;2.30;2.20;;;43.20;25.00;;;;;;5011724;28;20836;-75
2022/04/19 08:50:10;;;;;;;1.80;1.70;;;43.00;25.00;;;;;;5012116;28;20814;-75
2022/04/19 08:52:36;;;;;;;2.87;2.67;;;43.20;25.00;;;;;;5012027;28;20415;-75
2022/04/19 08:57:47;;;;;;;2.57;2.33;;;43.80;24.60;;;;;;5011752;28;20433;-75
2022/04/19 09:00:14;;;;;;;3.20;2.70;;;44.10;24.90;;;;;;5011896;28;20415;-75
2022/04/19 09:02:40;;;;;;;3.63;2.93;;;44.80;24.60;;;;;;5026843;28;20207;-75
2022/04/19 09:05:28;;;;;;;2.17;1.97;;;45.40;24.40;;;;;;5010623;28;20915;-75
2022/04/19 09:07:57;;;;;;;4.50;2.83;;;45.90;24.70;;;;;;5010192;28;20406;-75
2022/04/19 09:10:26;;;;;;;2.57;2.33;;;46.30;24.50;;;;;;5010680;28;20466;-75
2022/04/19 09:13:07;;;;;;;3.40;3.10;;;46.80;24.10;;;;;;5010472;28;20415;-76
2022/04/19 09:15:37;;;;;;;2.40;2.30;;;47.20;23.70;;;;;;5010522;28;20476;-75
2022/04/19 09:18:04;;;;;;;2.83;2.40;;;46.80;23.30;;;;;;5010184;28;20420;-75
2022/04/19 09:20:31;;;;;;;2.67;2.47;;;47.00;23.60;;;;;;5010605;28;20398;-76
2022/04/19 09:23:08;;;;;;;3.83;2.27;;;47.70;23.80;;;;;;5012920;28;20450;-76
2022/04/19 09:25:34;;;;;;;5.73;2.97;;;47.90;23.30;;;;;;5010228;28;20390;-76
2022/04/19 09:28:03;;;;;;;2.57;2.37;;;47.90;23.20;;;;;;5009960;28;20421;-76
2022/04/19 09:30:32;;;;;;;2.60;2.40;;;48.20;23.20;;;;;;5010196;28;20405;-76
2022/04/19 09:33:04;;;;;;;2.60;2.40;;;48.60;23.10;;;;;;5010091;28;20390;-76
2022/04/19 09:35:32;;;;;;;2.60;2.40;;;49.00;22.80;;;;;;5010381;28;20381;-76
2022/04/19 09:37:58;;;;;;;2.90;2.70;;;49.40;23.00;;;;;;5009909;28;20430;-74
2022/04/19 09:40:29;;;;;;;3.07;2.33;;;49.70;23.10;;;;;;5012955;28;20908;-74
2022/04/19 09:42:55;;;;;;;2.20;2.10;;;50.20;22.80;;;;;;5013397;28;20457;-74
2022/04/19 09:45:23;;;;;;;2.60;2.40;;;50.70;22.90;;;;;;5013528;28;21007;-74
2022/04/19 09:47:51;;;;;;;3.60;3.30;;;50.70;21.90;;;;;;5013137;28;20476;-74
2022/04/19 09:50:17;;;;;;;2.90;2.70;;;50.70;21.80;;;;;;5013847;28;20401;-74
2022/04/19 09:52:50;;;;;;;3.90;2.60;;;51.00;22.40;;;;;;5013602;28;20920;-74
2022/04/19 09:55:16;;;;;;;3.43;2.90;;;50.70;21.80;;;;;;5013390;28;20854;-74
2022/04/19 09:57:46;;;;;;;2.10;1.90;;;50.80;21.80;;;;;;5013290;28;20814;-74
2022/04/19 10:00:16;;;;;;;5.13;2.40;;;50.80;21.80;;;;;;5014589;28;20513;-74
2022/04/19 10:08:21;;;;;;;2.97;2.70;;;51.10;21.50;;;;;;5014600;28;20870;-74
2022/04/19 10:10:52;;;;;;;3.07;2.87;;;51.40;21.80;;;;;;5013376;28;20469;-74
2022/04/19 10:13:19;;;;;;;3.10;2.90;;;51.80;21.60;;;;;;5013151;28;20390;-74
2022/04/19 10:15:45;;;;;;;2.87;2.67;;;52.30;21.80;;;;;;5029667;28;20729;-74
2022/04/19 10:18:11;;;;;;;3.00;2.80;;;52.40;21.40;;;;;;5013991;28;20430;-74
2022/04/19 10:20:41;;;;;;;2.93;2.63;;;52.40;21.60;;;;;;5014329;28;20648;-74
2022/04/19 10:23:08;;;;;;;2.50;2.27;;;52.70;21.70;;;;;;5014441;28;20417;-74
2022/04/19 10:25:44;;;;;;;2.60;2.40;;;53.00;21.40;;;;;;5014361;28;20378;-74
2022/04/19 10:28:13;;;;;;;2.10;2.00;;;53.00;21.10;;;;;;5013895;28;20803;-74
2022/04/19 10:30:47;;;;;;;2.87;2.47;;;53.10;21.10;;;;;;5014119;28;20602;-74
2022/04/19 10:33:51;;;;;;;3.33;3.03;;;53.10;21.20;;;;;;5018901;28;20415;-74
2022/04/19 10:36:21;;;;;;;2.70;2.50;;;53.00;21.30;;;;;;5030661;28;20427;-74
2022/04/19 10:39:13;;;;;;;2.40;2.20;;;53.00;21.00;;;;;;5033925;28;20369;-74
2022/04/19 10:41:59;;;;;;;2.67;2.50;;;53.00;21.10;;;;;;5030423;28;20426;-74
2022/04/19 10:44:41;;;;;;;3.90;3.37;;;53.20;21.20;;;;;;5014627;28;20492;-74
2022/04/19 10:47:13;;;;;;;3.60;3.33;;;52.90;20.60;;;;;;5020413;28;20980;-74
2022/04/19 10:49:54;;;;;;;3.60;3.30;;;52.70;20.50;;;;;;5022877;28;20393;-74
2022/04/19 10:52:44;;;;;;;3.17;2.93;;;52.40;20.80;;;;;;5011675;28;20489;-74
2022/04/19 10:55:24;;;;;;;2.90;2.50;;;52.20;20.80;;;;;;5011808;28;20446;-74
2022/04/19 10:58:23;;;;;;;2.93;2.73;;;52.40;20.90;;;;;;5011659;28;20441;-74
2022/04/19 11:00:54;;;;;;;2.70;2.50;;;52.00;20.10;;;;;;5012324;28;20394;-74
2022/04/19 11:03:26;;;;;;;2.43;2.23;;;51.80;20.50;;;;;;5011946;28;20421;-74
2022/04/19 11:05:53;;;;;;;2.13;2.03;;;51.50;20.40;;;;;;5011677;28;20494;-74
2022/04/19 11:08:25;;;;;;;2.47;2.13;;;51.40;20.30;;;;;;4995701;28;20938;-74
2022/04/19 11:11:02;;;;;;;3.10;2.80;;;51.00;20.10;;;;;;5013158;28;20386;-74
2022/04/19 11:13:32;;;;;;;3.40;3.10;;;51.10;20.80;;;;;;5012911;28;20467;-74
2022/04/19 11:16:06;;;;;;;3.30;3.00;;;51.30;20.50;;;;;;5011703;28;20415;-74
2022/04/19 11:18:33;;;;;;;3.17;2.60;;;51.30;20.20;;;;;;5012857;28;20407;-74
2022/04/19 11:21:02;;;;;;;3.50;3.20;;;51.20;20.50;;;;;;5013007;28;20410;-74
2022/04/19 11:23:29;;;;;;;3.10;2.80;;;51.30;20.10;;;;;;5012974;28;20382;-74
2022/04/19 11:25:55;;;;;;;2.30;2.10;;;51.40;20.10;;;;;;5012883;28;20399;-74
2022/04/19 11:28:26;;;;;;;2.33;2.23;;;51.60;20.20;;;;;;5012623;28;20461;-74
2022/04/19 11:30:55;;;;;;;2.70;2.50;;;51.90;20.40;;;;;;5011402;28;20972;-74
2022/04/19 11:33:25;;;;;;;2.33;2.23;;;52.00;20.50;;;;;;5013942;28;20428;-74
2022/04/19 11:36:04;;;;;;;2.00;1.90;;;52.20;20.30;;;;;;5013838;28;20382;-74
2022/04/19 11:38:42;;;;;;;2.33;2.10;;;52.20;19.90;;;;;;5010982;28;20389;-74
2022/04/19 11:46:45;;;;;;;2.10;2.00;;;52.90;20.00;;;;;;5012526;28;20902;-74
2022/04/19 11:49:24;;;;;;;2.10;2.00;;;53.20;20.10;;;;;;5011165;28;20423;-74
2022/04/19 11:52:11;;;;;;;1.80;1.70;;;52.80;19.40;;;;;;5011157;28;20418;-74
2022/04/19 11:54:37;;;;;;;2.00;1.90;;;52.50;19.70;;;;;;5010165;28;20437;-74
2022/04/19 11:57:05;;;;;;;2.67;2.20;;;53.00;20.00;;;;;;5012367;28;20499;-74
2022/04/19 11:59:37;;;;;;;2.00;1.90;;;53.60;20.10;;;;;;5010877;28;20164;-74
2022/04/19 12:02:11;;;;;;;2.20;2.10;;;54.10;20.20;;;;;;5010541;28;20484;-74
2022/04/19 12:04:36;;;;;;;2.67;2.47;;;54.50;20.00;;;;;;5011838;28;20374;-74
2022/04/19 12:07:03;;;;;;;2.43;2.23;;;55.10;19.80;;;;;;5010518;28;20427;-74
2022/04/19 12:09:29;;;;;;;2.20;2.10;;;55.20;19.70;;;;;;5011213;28;20251;-74
2022/04/19 12:11:55;;;;;;;1.90;1.80;;;55.20;19.40;;;;;;5012218;28;20432;-74
2022/04/19 12:14:32;;;;;;;2.20;2.10;;;55.30;19.80;;;;;;5011909;28;21018;-74
2022/04/19 12:17:06;;;;;;;2.00;1.90;;;55.50;19.50;;;;;;5011759;28;20454;-74
2022/04/19 12:19:40;;;;;;;2.40;2.30;;;55.80;19.90;;;;;;5011980;28;20416;-74
2022/04/19 12:22:23;;;;;;;2.73;2.53;;;55.90;19.30;;;;;;5014287;28;20771;-74
2022/04/19 12:24:53;;;;;;;2.13;2.00;;;55.90;19.20;;;;;;5022409;28;20622;-74
2022/04/19 12:27:30;;;;;;;2.93;2.40;;;55.90;19.10;;;;;;5011639;28;20415;-75
2022/04/19 12:30:03;;;;;;;2.00;1.90;;;55.80;19.00;;;;;;5011918;28;20403;-74
2022/04/19 12:32:55;;;;;;;1.60;1.50;;;55.30;18.90;;;;;;5023032;28;20389;-74
2022/04/19 12:35:37;;;;;;;2.00;1.90;;;54.90;18.80;;;;;;5022856;28;20769;-74
2022/04/19 12:38:06;;;;;;;1.90;1.80;;;54.40;19.00;;;;;;5028112;28;20853;-75
2022/04/19 12:40:33;;;;;;;2.00;1.90;;;53.90;18.90;;;;;;5017800;28;20380;-74
2022/04/19 12:42:58;;;;;;;1.83;1.73;;;53.80;18.90;;;;;;5031635;28;20385;-74
2022/04/19 12:45:30;;;;;;;1.80;1.70;;;53.80;19.00;;;;;;5031555;28;20398;-74
2022/04/19 12:47:58;;;;;;;1.80;1.70;;;54.10;19.00;;;;;;5024583;28;20590;-74
2022/04/19 12:50:24;;;;;;;1.87;1.77;;;54.30;19.10;;;;;;5017062;28;20409;-74
2022/04/19 12:52:50;;;;;;;1.93;1.83;;;54.30;18.90;;;;;;5026826;28;20501;-74
2022/04/19 12:55:15;;;;;;;1.80;1.70;;;54.10;18.90;;;;;;5011707;28;20184;-75
2022/04/19 12:57:44;;;;;;;1.90;1.80;;;53.80;18.90;;;;;;5011489;28;20188;-74
2022/04/19 13:00:11;;;;;;;1.80;1.70;;;53.50;18.90;;;;;;5011974;28;20168;-74
2022/04/19 13:02:38;;;;;;;1.80;1.70;;;53.20;18.90;;;;;;5011978;28;20378;-74
2022/04/19 13:05:04;;;;;;;1.73;1.60;;;53.10;19.00;;;;;;5011885;28;20411;-74
2022/04/19 13:13:00;;;;;;;1.83;1.73;;;52.40;19.10;;;;;;5012099;28;20464;-74
2022/04/19 13:15:25;;;;;;;1.60;1.50;;;52.10;19.30;;;;;;5014543;28;20490;-74
2022/04/19 13:17:51;;;;;;;1.90;1.80;;;51.40;19.20;;;;;;5015273;28;20226;-74
2022/04/19 13:20:16;;;;;;;1.63;1.53;;;50.90;19.20;;;;;;5015613;28;20176;-74
2022/04/19 13:22:42;;;;;;;2.30;1.90;;;50.70;19.80;;;;;;5015495;28;20517;-74
2022/04/19 13:25:08;;;;;;;1.90;1.80;;;50.70;20.10;;;;;;5015422;28;20532;-74
2022/04/19 13:27:35;;;;;;;2.57;2.37;;;50.60;20.50;;;;;;5015073;28;20196;-74
2022/04/19 13:30:02;;;;;;;4.33;3.00;;;50.50;20.90;;;;;;5015288;28;20396;-74
2022/04/19 13:32:27;;;;;;;2.07;1.97;;;50.50;20.80;;;;;;5015185;28;20846;-74